sensor_id;sensor_type;location;lat;lon;timestamp;temperature;humidity
54178;DHT22;40085;53.004;6.770;2022-12-29T00:01:16;10.10;99.90
54178;DHT22;40085;53.004;6.770;2022-12-29T00:03:45;10.10;99.90
54178;DHT22;40085;53.004;6.770;2022-12-29T00:06:11;10.10;99.90
54178;DHT22;40085;53.004;6.770;2022-12-29T00:08:36;10.10;99.90
54178;DHT22;40085;53.004;6.770;2022-12-29T00:11:12;10.10;99.90
54178;DHT22;40085;53.004;6.770;2022-12-29T00:13:39;10.10;99.90
54178;DHT22;40085;53.004;6.770;2022-12-29T00:16:23;10.10;99.90
54178;DHT22;40085;53.004;6.770;2022-12-29T00:18:49;10.10;99.90
54178;DHT22;40085;53.004;6.770;2022-12-29T00:21:17;10.10;99.90
54178;DHT22;40085;53.004;6.770;2022-12-29T00:24:01;10.10;99.90
54178;DHT22;40085;53.004;6.770;2022-12-29T00:26:48;10.00;99.90
54178;DHT22;40085;53.004;6.770;2022-12-29T00:29:34;10.00;99.90
54178;DHT22;40085;53.004;6.770;2022-12-29T00:32:18;10.00;99.90
54178;DHT22;40085;53.004;6.770;2022-12-29T00:35:02;10.00;99.90
54178;DHT22;40085;53.004;6.770;2022-12-29T00:37:39;10.00;99.90
54178;DHT22;40085;53.004;6.770;2022-12-29T00:40:24;10.00;99.90
54178;DHT22;40085;53.004;6.770;2022-12-29T00:43:08;10.10;99.90
54178;DHT22;40085;53.004;6.770;2022-12-29T00:45:52;10.00;99.90
54178;DHT22;40085;53.004;6.770;2022-12-29T00:48:18;10.00;99.90
54178;DHT22;40085;53.004;6.770;2022-12-29T00:51:22;10.00;99.90
54178;DHT22;40085;53.004;6.770;2022-12-29T00:53:49;10.10;99.90
54178;DHT22;40085;53.004;6.770;2022-12-29T00:56:14;10.10;99.90
54178;DHT22;40085;53.004;6.770;2022-12-29T00:58:40;10.10;99.90
54178;DHT22;40085;53.004;6.770;2022-12-29T01:01:07;10.10;99.90
54178;DHT22;40085;53.004;6.770;2022-12-29T01:03:34;10.20;99.90
54178;DHT22;40085;53.004;6.770;2022-12-29T01:06:02;10.20;99.90
54178;DHT22;40085;53.004;6.770;2022-12-29T01:08:28;10.20;99.90
54178;DHT22;40085;53.004;6.770;2022-12-29T01:11:23;10.20;99.90
54178;DHT22;40085;53.004;6.770;2022-12-29T01:13:49;10.20;99.90
54178;DHT22;40085;53.004;6.770;2022-12-29T01:16:14;10.20;99.90
54178;DHT22;40085;53.004;6.770;2022-12-29T01:18:40;10.30;99.90
54178;DHT22;40085;53.004;6.770;2022-12-29T01:21:06;11.10;99.90
54178;DHT22;40085;53.004;6.770;2022-12-29T01:23:32;10.30;99.90
54178;DHT22;40085;53.004;6.770;2022-12-29T01:26:07;10.30;99.90
54178;DHT22;40085;53.004;6.770;2022-12-29T01:28:33;10.30;99.90
54178;DHT22;40085;53.004;6.770;2022-12-29T01:31:00;10.30;99.90
54178;DHT22;40085;53.004;6.770;2022-12-29T01:33:26;10.30;99.90
54178;DHT22;40085;53.004;6.770;2022-12-29T01:35:51;10.30;99.90
54178;DHT22;40085;53.004;6.770;2022-12-29T01:38:17;10.30;99.90
54178;DHT22;40085;53.004;6.770;2022-12-29T01:40:44;10.90;99.90
54178;DHT22;40085;53.004;6.770;2022-12-29T01:43:12;10.30;99.90
54178;DHT22;40085;53.004;6.770;2022-12-29T01:45:41;10.30;99.90
54178;DHT22;40085;53.004;6.770;2022-12-29T01:48:09;10.40;99.90
54178;DHT22;40085;53.004;6.770;2022-12-29T01:50:43;10.40;99.90
54178;DHT22;40085;53.004;6.770;2022-12-29T01:53:12;10.40;99.90
54178;DHT22;40085;53.004;6.770;2022-12-29T01:55:51;11.10;99.90
54178;DHT22;40085;53.004;6.770;2022-12-29T01:58:23;10.50;99.90
54178;DHT22;40085;53.004;6.770;2022-12-29T02:00:49;10.40;99.90
54178;DHT22;40085;53.004;6.770;2022-12-29T02:03:17;10.50;99.90
54178;DHT22;40085;53.004;6.770;2022-12-29T02:08:32;10.50;99.90
54178;DHT22;40085;53.004;6.770;2022-12-29T02:10:59;10.60;99.90
54178;DHT22;40085;53.004;6.770;2022-12-29T02:13:26;10.50;99.90
54178;DHT22;40085;53.004;6.770;2022-12-29T02:16:24;10.60;99.90
54178;DHT22;40085;53.004;6.770;2022-12-29T02:27:21;10.60;99.90
54178;DHT22;40085;53.004;6.770;2022-12-29T02:30:24;10.60;99.90
54178;DHT22;40085;53.004;6.770;2022-12-29T02:33:10;10.60;99.90
54178;DHT22;40085;53.004;6.770;2022-12-29T02:39:01;10.70;99.90
54178;DHT22;40085;53.004;6.770;2022-12-29T02:41:58;10.60;99.90
54178;DHT22;40085;53.004;6.770;2022-12-29T02:44:50;10.70;99.90
54178;DHT22;40085;53.004;6.770;2022-12-29T02:47:42;10.60;99.90
54178;DHT22;40085;53.004;6.770;2022-12-29T02:50:14;10.50;99.90
54178;DHT22;40085;53.004;6.770;2022-12-29T02:52:49;10.50;99.90
54178;DHT22;40085;53.004;6.770;2022-12-29T02:55:16;10.50;99.90
54178;DHT22;40085;53.004;6.770;2022-12-29T02:57:42;10.40;99.90
54178;DHT22;40085;53.004;6.770;2022-12-29T03:00:13;10.50;99.90
54178;DHT22;40085;53.004;6.770;2022-12-29T03:03:07;10.50;99.90
54178;DHT22;40085;53.004;6.770;2022-12-29T03:11:13;10.50;99.90
54178;DHT22;40085;53.004;6.770;2022-12-29T03:14:44;10.40;99.90
54178;DHT22;40085;53.004;6.770;2022-12-29T03:17:30;10.50;99.90
54178;DHT22;40085;53.004;6.770;2022-12-29T03:20:06;10.50;99.90
54178;DHT22;40085;53.004;6.770;2022-12-29T03:22:36;10.50;99.90
54178;DHT22;40085;53.004;6.770;2022-12-29T03:25:20;10.50;99.90
54178;DHT22;40085;53.004;6.770;2022-12-29T03:28:08;10.50;99.90
54178;DHT22;40085;53.004;6.770;2022-12-29T03:30:35;10.50;99.90
54178;DHT22;40085;53.004;6.770;2022-12-29T03:33:04;10.60;99.90
54178;DHT22;40085;53.004;6.770;2022-12-29T03:35:34;10.60;99.90
54178;DHT22;40085;53.004;6.770;2022-12-29T03:38:23;10.60;99.90
54178;DHT22;40085;53.004;6.770;2022-12-29T03:40:54;10.60;99.90
54178;DHT22;40085;53.004;6.770;2022-12-29T03:43:21;10.50;99.90
54178;DHT22;40085;53.004;6.770;2022-12-29T03:45:47;10.50;99.90
54178;DHT22;40085;53.004;6.770;2022-12-29T03:48:12;10.60;99.90
54178;DHT22;40085;53.004;6.770;2022-12-29T03:50:38;10.50;99.90
54178;DHT22;40085;53.004;6.770;2022-12-29T03:53:03;10.50;99.90
54178;DHT22;40085;53.004;6.770;2022-12-29T03:55:29;10.50;99.90
54178;DHT22;40085;53.004;6.770;2022-12-29T03:57:54;11.00;99.90
54178;DHT22;40085;53.004;6.770;2022-12-29T04:00:20;10.50;99.90
54178;DHT22;40085;53.004;6.770;2022-12-29T04:02:46;10.50;99.90
54178;DHT22;40085;53.004;6.770;2022-12-29T04:05:12;10.50;99.90
54178;DHT22;40085;53.004;6.770;2022-12-29T04:07:38;10.50;99.90
54178;DHT22;40085;53.004;6.770;2022-12-29T04:10:03;10.60;99.90
54178;DHT22;40085;53.004;6.770;2022-12-29T04:12:29;10.50;99.90
54178;DHT22;40085;53.004;6.770;2022-12-29T04:14:55;10.50;99.90
54178;DHT22;40085;53.004;6.770;2022-12-29T04:17:20;10.50;99.90
54178;DHT22;40085;53.004;6.770;2022-12-29T04:19:46;10.40;99.90
54178;DHT22;40085;53.004;6.770;2022-12-29T04:22:11;10.40;99.90
54178;DHT22;40085;53.004;6.770;2022-12-29T04:24:37;10.40;99.90
54178;DHT22;40085;53.004;6.770;2022-12-29T04:27:03;10.30;99.90
54178;DHT22;40085;53.004;6.770;2022-12-29T04:29:29;10.30;99.90
54178;DHT22;40085;53.004;6.770;2022-12-29T04:31:54;10.20;99.90
54178;DHT22;40085;53.004;6.770;2022-12-29T04:34:20;10.20;99.90
54178;DHT22;40085;53.004;6.770;2022-12-29T04:36:45;10.20;99.90
54178;DHT22;40085;53.004;6.770;2022-12-29T04:39:11;10.20;99.90
54178;DHT22;40085;53.004;6.770;2022-12-29T04:41:36;9.90;99.90
54178;DHT22;40085;53.004;6.770;2022-12-29T04:44:02;9.90;99.90
54178;DHT22;40085;53.004;6.770;2022-12-29T04:46:28;10.00;99.90
54178;DHT22;40085;53.004;6.770;2022-12-29T04:48:53;9.90;99.90
54178;DHT22;40085;53.004;6.770;2022-12-29T04:51:19;9.80;99.90
54178;DHT22;40085;53.004;6.770;2022-12-29T04:53:44;9.80;99.90
54178;DHT22;40085;53.004;6.770;2022-12-29T04:56:10;9.70;99.90
54178;DHT22;40085;53.004;6.770;2022-12-29T04:58:36;9.70;99.90
54178;DHT22;40085;53.004;6.770;2022-12-29T05:01:02;9.70;99.90
54178;DHT22;40085;53.004;6.770;2022-12-29T05:03:27;9.70;99.90
54178;DHT22;40085;53.004;6.770;2022-12-29T05:05:54;9.70;99.90
54178;DHT22;40085;53.004;6.770;2022-12-29T05:08:20;9.80;99.90
54178;DHT22;40085;53.004;6.770;2022-12-29T05:10:46;9.80;99.90
54178;DHT22;40085;53.004;6.770;2022-12-29T05:13:12;9.80;99.90
54178;DHT22;40085;53.004;6.770;2022-12-29T05:15:37;9.80;99.90
54178;DHT22;40085;53.004;6.770;2022-12-29T05:18:03;9.80;99.90
54178;DHT22;40085;53.004;6.770;2022-12-29T05:20:29;9.80;99.90
54178;DHT22;40085;53.004;6.770;2022-12-29T05:22:54;9.80;99.90
54178;DHT22;40085;53.004;6.770;2022-12-29T05:25:20;9.70;99.90
54178;DHT22;40085;53.004;6.770;2022-12-29T05:27:45;9.80;99.90
54178;DHT22;40085;53.004;6.770;2022-12-29T05:30:11;9.80;99.90
54178;DHT22;40085;53.004;6.770;2022-12-29T05:32:37;9.70;99.90
54178;DHT22;40085;53.004;6.770;2022-12-29T05:35:03;9.70;99.90
54178;DHT22;40085;53.004;6.770;2022-12-29T05:37:29;9.70;99.90
54178;DHT22;40085;53.004;6.770;2022-12-29T05:39:54;9.60;99.90
54178;DHT22;40085;53.004;6.770;2022-12-29T05:42:20;9.60;99.90
54178;DHT22;40085;53.004;6.770;2022-12-29T05:44:46;9.60;99.90
54178;DHT22;40085;53.004;6.770;2022-12-29T05:47:11;10.00;99.90
54178;DHT22;40085;53.004;6.770;2022-12-29T05:49:37;9.60;99.90
54178;DHT22;40085;53.004;6.770;2022-12-29T05:52:03;9.60;99.90
54178;DHT22;40085;53.004;6.770;2022-12-29T05:54:28;9.60;99.90
54178;DHT22;40085;53.004;6.770;2022-12-29T05:56:54;9.60;99.90
54178;DHT22;40085;53.004;6.770;2022-12-29T05:59:20;9.50;99.90
54178;DHT22;40085;53.004;6.770;2022-12-29T06:01:45;9.50;99.90
54178;DHT22;40085;53.004;6.770;2022-12-29T06:04:11;9.50;99.90
54178;DHT22;40085;53.004;6.770;2022-12-29T06:06:36;9.50;99.90
54178;DHT22;40085;53.004;6.770;2022-12-29T06:09:02;9.60;99.90
54178;DHT22;40085;53.004;6.770;2022-12-29T06:11:27;9.50;99.90
54178;DHT22;40085;53.004;6.770;2022-12-29T06:13:53;9.60;99.90
54178;DHT22;40085;53.004;6.770;2022-12-29T06:16:19;9.60;99.90
54178;DHT22;40085;53.004;6.770;2022-12-29T06:18:44;9.60;99.90
54178;DHT22;40085;53.004;6.770;2022-12-29T06:21:10;9.60;99.90
54178;DHT22;40085;53.004;6.770;2022-12-29T06:23:36;9.60;99.90
54178;DHT22;40085;53.004;6.770;2022-12-29T06:26:01;9.60;99.90
54178;DHT22;40085;53.004;6.770;2022-12-29T06:28:27;9.60;99.90
54178;DHT22;40085;53.004;6.770;2022-12-29T06:30:52;9.60;99.90
54178;DHT22;40085;53.004;6.770;2022-12-29T06:33:18;9.50;99.90
54178;DHT22;40085;53.004;6.770;2022-12-29T06:35:44;9.50;99.90
54178;DHT22;40085;53.004;6.770;2022-12-29T06:38:11;9.50;99.90
54178;DHT22;40085;53.004;6.770;2022-12-29T06:40:36;9.50;99.90
54178;DHT22;40085;53.004;6.770;2022-12-29T06:43:02;9.60;99.90
54178;DHT22;40085;53.004;6.770;2022-12-29T06:45:27;9.50;99.90
54178;DHT22;40085;53.004;6.770;2022-12-29T06:47:53;9.60;99.90
54178;DHT22;40085;53.004;6.770;2022-12-29T06:50:19;9.70;99.90
54178;DHT22;40085;53.004;6.770;2022-12-29T06:52:44;9.60;99.90
54178;DHT22;40085;53.004;6.770;2022-12-29T06:55:10;9.60;99.90
54178;DHT22;40085;53.004;6.770;2022-12-29T06:57:35;10.30;99.90
54178;DHT22;40085;53.004;6.770;2022-12-29T07:00:02;9.60;99.90
54178;DHT22;40085;53.004;6.770;2022-12-29T07:02:27;9.60;99.90
54178;DHT22;40085;53.004;6.770;2022-12-29T07:04:53;9.70;99.90
54178;DHT22;40085;53.004;6.770;2022-12-29T07:07:20;9.70;99.90
54178;DHT22;40085;53.004;6.770;2022-12-29T07:09:46;9.70;99.90
54178;DHT22;40085;53.004;6.770;2022-12-29T07:12:11;9.60;99.90
54178;DHT22;40085;53.004;6.770;2022-12-29T07:14:37;9.60;99.90
54178;DHT22;40085;53.004;6.770;2022-12-29T07:17:03;9.60;99.90
54178;DHT22;40085;53.004;6.770;2022-12-29T07:19:32;9.50;99.90
54178;DHT22;40085;53.004;6.770;2022-12-29T07:21:58;9.50;99.90
54178;DHT22;40085;53.004;6.770;2022-12-29T07:24:24;9.50;99.90
54178;DHT22;40085;53.004;6.770;2022-12-29T07:26:53;9.60;99.90
54178;DHT22;40085;53.004;6.770;2022-12-29T07:29:18;9.60;99.90
54178;DHT22;40085;53.004;6.770;2022-12-29T07:31:44;9.60;99.90
54178;DHT22;40085;53.004;6.770;2022-12-29T07:34:10;9.60;99.90
54178;DHT22;40085;53.004;6.770;2022-12-29T07:36:35;10.30;99.90
54178;DHT22;40085;53.004;6.770;2022-12-29T07:39:01;9.70;99.90
54178;DHT22;40085;53.004;6.770;2022-12-29T07:41:27;9.70;99.90
54178;DHT22;40085;53.004;6.770;2022-12-29T07:43:53;9.70;99.90
54178;DHT22;40085;53.004;6.770;2022-12-29T07:46:18;9.70;99.90
54178;DHT22;40085;53.004;6.770;2022-12-29T07:48:44;9.80;99.90
54178;DHT22;40085;53.004;6.770;2022-12-29T07:51:09;9.80;99.90
54178;DHT22;40085;53.004;6.770;2022-12-29T07:53:35;9.70;99.90
54178;DHT22;40085;53.004;6.770;2022-12-29T07:56:01;9.70;99.90
54178;DHT22;40085;53.004;6.770;2022-12-29T07:58:26;9.70;99.90
54178;DHT22;40085;53.004;6.770;2022-12-29T08:00:55;9.70;99.90
54178;DHT22;40085;53.004;6.770;2022-12-29T08:03:21;9.60;99.90
54178;DHT22;40085;53.004;6.770;2022-12-29T08:05:48;9.60;99.90
54178;DHT22;40085;53.004;6.770;2022-12-29T08:08:13;9.60;99.90
54178;DHT22;40085;53.004;6.770;2022-12-29T08:10:39;9.60;99.90
54178;DHT22;40085;53.004;6.770;2022-12-29T08:13:05;9.60;99.90
54178;DHT22;40085;53.004;6.770;2022-12-29T08:15:30;9.60;99.90
54178;DHT22;40085;53.004;6.770;2022-12-29T08:17:56;9.60;99.90
54178;DHT22;40085;53.004;6.770;2022-12-29T08:20:21;9.70;99.90
54178;DHT22;40085;53.004;6.770;2022-12-29T08:22:47;9.70;99.90
54178;DHT22;40085;53.004;6.770;2022-12-29T08:25:12;9.70;99.90
54178;DHT22;40085;53.004;6.770;2022-12-29T08:27:38;9.70;99.90
54178;DHT22;40085;53.004;6.770;2022-12-29T08:30:04;9.70;99.90
54178;DHT22;40085;53.004;6.770;2022-12-29T08:32:30;9.80;99.90
54178;DHT22;40085;53.004;6.770;2022-12-29T08:34:55;9.80;99.90
54178;DHT22;40085;53.004;6.770;2022-12-29T08:37:21;9.70;99.90
54178;DHT22;40085;53.004;6.770;2022-12-29T08:39:47;9.80;99.90
54178;DHT22;40085;53.004;6.770;2022-12-29T08:42:13;9.70;99.90
54178;DHT22;40085;53.004;6.770;2022-12-29T08:44:39;9.80;99.90
54178;DHT22;40085;53.004;6.770;2022-12-29T08:47:04;9.80;99.90
54178;DHT22;40085;53.004;6.770;2022-12-29T08:49:30;9.80;99.90
54178;DHT22;40085;53.004;6.770;2022-12-29T08:51:56;9.80;99.90
54178;DHT22;40085;53.004;6.770;2022-12-29T08:54:21;9.90;99.90
54178;DHT22;40085;53.004;6.770;2022-12-29T08:56:47;9.80;99.90
54178;DHT22;40085;53.004;6.770;2022-12-29T08:59:12;9.90;99.90
54178;DHT22;40085;53.004;6.770;2022-12-29T09:01:38;9.90;99.90
54178;DHT22;40085;53.004;6.770;2022-12-29T09:04:06;10.00;99.90
54178;DHT22;40085;53.004;6.770;2022-12-29T09:06:32;10.00;99.90
54178;DHT22;40085;53.004;6.770;2022-12-29T09:08:58;10.10;99.90
54178;DHT22;40085;53.004;6.770;2022-12-29T09:11:24;10.10;99.90
54178;DHT22;40085;53.004;6.770;2022-12-29T09:13:51;10.10;99.90
54178;DHT22;40085;53.004;6.770;2022-12-29T09:16:17;10.40;99.90
54178;DHT22;40085;53.004;6.770;2022-12-29T09:18:43;9.80;99.90
54178;DHT22;40085;53.004;6.770;2022-12-29T09:21:10;9.80;99.90
54178;DHT22;40085;53.004;6.770;2022-12-29T09:23:36;9.70;99.90
54178;DHT22;40085;53.004;6.770;2022-12-29T09:26:03;9.70;99.90
54178;DHT22;40085;53.004;6.770;2022-12-29T09:28:30;9.70;99.90
54178;DHT22;40085;53.004;6.770;2022-12-29T09:30:56;9.70;99.90
54178;DHT22;40085;53.004;6.770;2022-12-29T09:33:23;9.70;99.90
54178;DHT22;40085;53.004;6.770;2022-12-29T09:36:00;9.70;99.90
54178;DHT22;40085;53.004;6.770;2022-12-29T09:38:26;10.30;99.90
54178;DHT22;40085;53.004;6.770;2022-12-29T09:40:55;9.70;99.90
54178;DHT22;40085;53.004;6.770;2022-12-29T09:44:06;9.70;99.90
54178;DHT22;40085;53.004;6.770;2022-12-29T09:49:08;9.70;99.90
54178;DHT22;40085;53.004;6.770;2022-12-29T09:51:38;9.70;99.90
54178;DHT22;40085;53.004;6.770;2022-12-29T09:54:19;9.80;99.90
54178;DHT22;40085;53.004;6.770;2022-12-29T09:56:47;9.80;99.90
54178;DHT22;40085;53.004;6.770;2022-12-29T09:59:17;9.80;99.90
54178;DHT22;40085;53.004;6.770;2022-12-29T10:01:54;9.80;99.90
54178;DHT22;40085;53.004;6.770;2022-12-29T10:04:22;9.80;99.90
54178;DHT22;40085;53.004;6.770;2022-12-29T10:07:04;9.80;99.90
54178;DHT22;40085;53.004;6.770;2022-12-29T10:09:42;9.80;99.90
54178;DHT22;40085;53.004;6.770;2022-12-29T10:12:28;9.70;99.90
54178;DHT22;40085;53.004;6.770;2022-12-29T10:18:01;9.60;99.90
54178;DHT22;40085;53.004;6.770;2022-12-29T10:23:33;9.50;99.90
54178;DHT22;40085;53.004;6.770;2022-12-29T10:26:02;9.40;99.90
54178;DHT22;40085;53.004;6.770;2022-12-29T10:28:38;9.30;99.90
54178;DHT22;40085;53.004;6.770;2022-12-29T10:31:13;9.20;99.90
54178;DHT22;40085;53.004;6.770;2022-12-29T10:33:42;9.10;99.90
54178;DHT22;40085;53.004;6.770;2022-12-29T10:38:48;9.00;99.90
54178;DHT22;40085;53.004;6.770;2022-12-29T10:41:39;8.90;99.90
54178;DHT22;40085;53.004;6.770;2022-12-29T10:44:10;8.90;99.90
54178;DHT22;40085;53.004;6.770;2022-12-29T10:46:38;8.90;99.90
54178;DHT22;40085;53.004;6.770;2022-12-29T10:49:06;8.90;99.90
54178;DHT22;40085;53.004;6.770;2022-12-29T10:51:42;8.80;99.90
54178;DHT22;40085;53.004;6.770;2022-12-29T10:57:38;8.80;99.90
54178;DHT22;40085;53.004;6.770;2022-12-29T11:00:14;8.90;99.90
54178;DHT22;40085;53.004;6.770;2022-12-29T11:02:54;8.90;99.90
54178;DHT22;40085;53.004;6.770;2022-12-29T11:05:46;8.80;99.90
54178;DHT22;40085;53.004;6.770;2022-12-29T11:08:18;8.80;99.90
54178;DHT22;40085;53.004;6.770;2022-12-29T11:10:45;8.70;99.90
54178;DHT22;40085;53.004;6.770;2022-12-29T11:13:13;8.70;99.90
54178;DHT22;40085;53.004;6.770;2022-12-29T11:15:44;8.70;99.90
54178;DHT22;40085;53.004;6.770;2022-12-29T11:20:58;8.70;99.90
54178;DHT22;40085;53.004;6.770;2022-12-29T11:26:20;8.70;99.90
54178;DHT22;40085;53.004;6.770;2022-12-29T11:29:03;8.70;99.90
54178;DHT22;40085;53.004;6.770;2022-12-29T11:31:29;8.70;99.90
54178;DHT22;40085;53.004;6.770;2022-12-29T11:33:55;8.70;99.90
54178;DHT22;40085;53.004;6.770;2022-12-29T11:36:23;8.60;99.90
54178;DHT22;40085;53.004;6.770;2022-12-29T11:38:51;8.70;99.90
54178;DHT22;40085;53.004;6.770;2022-12-29T11:41:25;8.60;99.90
54178;DHT22;40085;53.004;6.770;2022-12-29T11:43:54;8.60;99.90
54178;DHT22;40085;53.004;6.770;2022-12-29T11:46:32;8.60;99.90
54178;DHT22;40085;53.004;6.770;2022-12-29T11:48:59;8.60;99.90
54178;DHT22;40085;53.004;6.770;2022-12-29T11:51:46;8.60;99.90
54178;DHT22;40085;53.004;6.770;2022-12-29T11:54:19;8.60;99.90
54178;DHT22;40085;53.004;6.770;2022-12-29T11:56:49;8.60;99.90
54178;DHT22;40085;53.004;6.770;2022-12-29T12:01:54;8.80;99.90
54178;DHT22;40085;53.004;6.770;2022-12-29T12:04:26;8.80;99.90
54178;DHT22;40085;53.004;6.770;2022-12-29T12:07:15;8.90;99.90
54178;DHT22;40085;53.004;6.770;2022-12-29T12:09:51;9.00;99.90
54178;DHT22;40085;53.004;6.770;2022-12-29T12:12:41;9.00;99.90
54178;DHT22;40085;53.004;6.770;2022-12-29T12:15:16;9.00;99.90
54178;DHT22;40085;53.004;6.770;2022-12-29T12:17:57;9.10;99.90
54178;DHT22;40085;53.004;6.770;2022-12-29T12:23:47;9.10;99.90
54178;DHT22;40085;53.004;6.770;2022-12-29T12:29:14;9.20;99.90
54178;DHT22;40085;53.004;6.770;2022-12-29T12:31:47;9.20;99.90
54178;DHT22;40085;53.004;6.770;2022-12-29T12:34:23;9.10;99.90
54178;DHT22;40085;53.004;6.770;2022-12-29T12:39:41;9.20;99.90
54178;DHT22;40085;53.004;6.770;2022-12-29T12:47:48;9.40;99.90
54178;DHT22;40085;53.004;6.770;2022-12-29T12:53:35;9.60;99.90
54178;DHT22;40085;53.004;6.770;2022-12-29T13:04:24;9.70;99.90
54178;DHT22;40085;53.004;6.770;2022-12-29T13:12:47;9.40;99.90
54178;DHT22;40085;53.004;6.770;2022-12-29T13:20:41;9.30;99.90
54178;DHT22;40085;53.004;6.770;2022-12-29T13:23:41;9.20;99.90
54178;DHT22;40085;53.004;6.770;2022-12-29T13:26:13;9.20;99.90
54178;DHT22;40085;53.004;6.770;2022-12-29T13:31:24;9.10;99.90
54178;DHT22;40085;53.004;6.770;2022-12-29T13:37:47;9.20;99.90
54178;DHT22;40085;53.004;6.770;2022-12-29T13:39:38;9.10;99.90
54178;DHT22;40085;53.004;6.770;2022-12-29T13:42:05;9.20;99.90
54178;DHT22;40085;53.004;6.770;2022-12-29T13:47:04;9.20;99.90
54178;DHT22;40085;53.004;6.770;2022-12-29T13:49:33;9.30;99.90
54178;DHT22;40085;53.004;6.770;2022-12-29T13:52:11;9.30;99.90
54178;DHT22;40085;53.004;6.770;2022-12-29T13:57:40;9.20;99.90
54178;DHT22;40085;53.004;6.770;2022-12-29T14:00:16;9.30;99.90
54178;DHT22;40085;53.004;6.770;2022-12-29T14:07:43;9.30;99.90
54178;DHT22;40085;53.004;6.770;2022-12-29T14:10:33;9.20;99.90
54178;DHT22;40085;53.004;6.770;2022-12-29T14:13:18;9.20;99.90
54178;DHT22;40085;53.004;6.770;2022-12-29T14:15:51;9.10;99.90
54178;DHT22;40085;53.004;6.770;2022-12-29T14:18:26;9.00;99.90
54178;DHT22;40085;53.004;6.770;2022-12-29T14:20:59;9.00;99.90
54178;DHT22;40085;53.004;6.770;2022-12-29T14:23:50;8.90;99.90
54178;DHT22;40085;53.004;6.770;2022-12-29T14:29:41;8.80;99.90
54178;DHT22;40085;53.004;6.770;2022-12-29T14:37:24;9.30;99.90
54178;DHT22;40085;53.004;6.770;2022-12-29T14:42:29;8.80;99.90
54178;DHT22;40085;53.004;6.770;2022-12-29T14:45:06;8.80;99.90
54178;DHT22;40085;53.004;6.770;2022-12-29T14:47:39;8.70;99.90
54178;DHT22;40085;53.004;6.770;2022-12-29T14:50:36;8.70;99.90
54178;DHT22;40085;53.004;6.770;2022-12-29T14:53:05;8.60;99.90
54178;DHT22;40085;53.004;6.770;2022-12-29T14:55:53;8.70;99.90
54178;DHT22;40085;53.004;6.770;2022-12-29T14:58:29;8.60;99.90
54178;DHT22;40085;53.004;6.770;2022-12-29T15:00:56;8.60;99.90
54178;DHT22;40085;53.004;6.770;2022-12-29T15:03:32;8.50;99.90
54178;DHT22;40085;53.004;6.770;2022-12-29T15:06:06;8.60;99.90
54178;DHT22;40085;53.004;6.770;2022-12-29T15:08:42;8.60;99.90
54178;DHT22;40085;53.004;6.770;2022-12-29T15:11:14;8.50;99.90
54178;DHT22;40085;53.004;6.770;2022-12-29T15:13:42;8.50;99.90
54178;DHT22;40085;53.004;6.770;2022-12-29T15:16:40;8.40;99.90
54178;DHT22;40085;53.004;6.770;2022-12-29T15:19:24;8.50;99.90
54178;DHT22;40085;53.004;6.770;2022-12-29T15:21:51;8.40;99.90
54178;DHT22;40085;53.004;6.770;2022-12-29T15:24:17;8.40;99.90
54178;DHT22;40085;53.004;6.770;2022-12-29T15:26:46;8.40;99.90
54178;DHT22;40085;53.004;6.770;2022-12-29T15:29:32;8.40;99.90
54178;DHT22;40085;53.004;6.770;2022-12-29T15:32:00;8.40;99.90
54178;DHT22;40085;53.004;6.770;2022-12-29T15:34:30;8.30;99.90
54178;DHT22;40085;53.004;6.770;2022-12-29T15:36:55;8.30;99.90
54178;DHT22;40085;53.004;6.770;2022-12-29T15:39:29;8.30;99.90
54178;DHT22;40085;53.004;6.770;2022-12-29T15:42:23;8.30;99.90
54178;DHT22;40085;53.004;6.770;2022-12-29T15:44:52;8.30;99.90
54178;DHT22;40085;53.004;6.770;2022-12-29T15:47:19;8.30;99.90
54178;DHT22;40085;53.004;6.770;2022-12-29T15:49:50;8.30;99.90
54178;DHT22;40085;53.004;6.770;2022-12-29T15:52:19;8.30;99.90
54178;DHT22;40085;53.004;6.770;2022-12-29T15:54:47;8.20;99.90
54178;DHT22;40085;53.004;6.770;2022-12-29T15:57:25;8.10;99.90
54178;DHT22;40085;53.004;6.770;2022-12-29T15:59:52;8.10;99.90
54178;DHT22;40085;53.004;6.770;2022-12-29T16:02:19;8.10;99.90
54178;DHT22;40085;53.004;6.770;2022-12-29T16:04:48;8.20;99.90
54178;DHT22;40085;53.004;6.770;2022-12-29T16:07:30;8.20;99.90
54178;DHT22;40085;53.004;6.770;2022-12-29T16:09:58;8.20;99.90
54178;DHT22;40085;53.004;6.770;2022-12-29T16:12:37;8.20;99.90
54178;DHT22;40085;53.004;6.770;2022-12-29T16:15:07;8.20;99.90
54178;DHT22;40085;53.004;6.770;2022-12-29T16:17:46;8.20;99.90
54178;DHT22;40085;53.004;6.770;2022-12-29T16:20:32;8.20;99.90
54178;DHT22;40085;53.004;6.770;2022-12-29T16:23:00;8.20;99.90
54178;DHT22;40085;53.004;6.770;2022-12-29T16:25:29;8.20;99.90
54178;DHT22;40085;53.004;6.770;2022-12-29T16:27:57;8.30;99.90
54178;DHT22;40085;53.004;6.770;2022-12-29T16:30:33;8.30;99.90
54178;DHT22;40085;53.004;6.770;2022-12-29T16:33:04;8.30;99.90
54178;DHT22;40085;53.004;6.770;2022-12-29T16:35:59;8.40;99.90
54178;DHT22;40085;53.004;6.770;2022-12-29T16:38:31;8.40;99.90
54178;DHT22;40085;53.004;6.770;2022-12-29T16:41:02;8.40;99.90
54178;DHT22;40085;53.004;6.770;2022-12-29T16:43:32;8.40;99.90
54178;DHT22;40085;53.004;6.770;2022-12-29T16:49:03;8.40;99.90
54178;DHT22;40085;53.004;6.770;2022-12-29T16:51:28;8.40;99.90
54178;DHT22;40085;53.004;6.770;2022-12-29T16:53:55;8.40;99.90
54178;DHT22;40085;53.004;6.770;2022-12-29T16:56:24;8.40;99.90
54178;DHT22;40085;53.004;6.770;2022-12-29T16:59:00;8.20;99.90
54178;DHT22;40085;53.004;6.770;2022-12-29T17:01:27;8.20;99.90
54178;DHT22;40085;53.004;6.770;2022-12-29T17:03:56;8.10;99.90
54178;DHT22;40085;53.004;6.770;2022-12-29T17:06:23;8.00;99.90
54178;DHT22;40085;53.004;6.770;2022-12-29T17:08:50;7.80;99.90
54178;DHT22;40085;53.004;6.770;2022-12-29T17:11:31;7.70;99.90
54178;DHT22;40085;53.004;6.770;2022-12-29T17:14:18;7.70;99.90
54178;DHT22;40085;53.004;6.770;2022-12-29T17:16:45;7.50;99.90
54178;DHT22;40085;53.004;6.770;2022-12-29T17:19:16;7.50;99.90
54178;DHT22;40085;53.004;6.770;2022-12-29T17:21:42;7.40;99.90
54178;DHT22;40085;53.004;6.770;2022-12-29T17:24:18;7.30;99.90
54178;DHT22;40085;53.004;6.770;2022-12-29T17:27:05;7.30;99.90
54178;DHT22;40085;53.004;6.770;2022-12-29T17:29:38;7.80;99.90
54178;DHT22;40085;53.004;6.770;2022-12-29T17:32:06;7.20;99.90
54178;DHT22;40085;53.004;6.770;2022-12-29T17:34:36;7.20;99.90
54178;DHT22;40085;53.004;6.770;2022-12-29T17:37:01;7.20;99.90
54178;DHT22;40085;53.004;6.770;2022-12-29T17:39:27;7.10;99.90
54178;DHT22;40085;53.004;6.770;2022-12-29T17:41:53;7.20;99.90
54178;DHT22;40085;53.004;6.770;2022-12-29T17:44:20;7.20;99.90
54178;DHT22;40085;53.004;6.770;2022-12-29T17:46:47;7.10;99.90
54178;DHT22;40085;53.004;6.770;2022-12-29T17:49:16;7.10;99.90
54178;DHT22;40085;53.004;6.770;2022-12-29T17:51:45;7.00;99.90
54178;DHT22;40085;53.004;6.770;2022-12-29T17:54:21;7.00;99.90
54178;DHT22;40085;53.004;6.770;2022-12-29T17:56:47;7.00;99.90